Time;durP1;ratioP1;P1;durP2;ratioP2;P2;SDS_P1;SDS_P2;PMS_P1;PMS_P2;Temp;Humidity;BMP_temperature;BMP_pressure;BME280_temperature;BME280_humidity;BME280_pressure;Samples;Min_cycle;Max_cycle;Signal;HPM_P1;HPM_P2
2022/05/13 00:01:49;;;;;;;9.82;5.85;;;;;;;16.03;100.00;96145.88;5010433;28;24825;-72
2022/05/13 00:04:15;;;;;;;6.47;5.77;;;;;;;15.82;100.00;96160.59;5010494;28;24420;-72
2022/05/13 00:06:42;;;;;;;6.10;5.50;;;;;;;15.81;100.00;96161.56;5010544;28;24424;-72
2022/05/13 00:09:08;;;;;;;8.13;5.97;;;;;;;15.91;100.00;96157.28;5010544;28;24424;-72
2022/05/13 00:11:35;;;;;;;7.25;5.63;;;;;;;15.95;100.00;96154.31;5010430;28;24468;-72
2022/05/13 00:14:02;;;;;;;9.23;5.68;;;;;;;16.00;100.00;96153.94;5010239;28;24834;-72
2022/05/13 00:16:30;;;;;;;6.03;5.22;;;;;;;16.05;100.00;96156.19;5010103;28;24968;-72
2022/05/13 00:18:57;;;;;;;8.45;6.20;;;;;;;15.99;100.00;96148.84;5010114;28;24949;-71
2022/05/13 00:21:24;;;;;;;8.50;6.15;;;;;;;15.90;100.00;96151.19;5010539;28;24447;-72
2022/05/13 00:23:51;;;;;;;7.03;5.93;;;;;;;15.83;100.00;96147.41;5010134;28;24899;-72
2022/05/13 00:26:17;;;;;;;6.07;5.47;;;;;;;15.89;100.00;96146.94;5010261;28;24447;-72
2022/05/13 00:28:44;;;;;;;6.40;5.63;;;;;;;16.00;100.00;96151.31;5010219;28;24413;-71
2022/05/13 00:31:12;;;;;;;7.03;5.72;;;;;;;16.03;100.00;96143.25;5010305;28;24455;-71
2022/05/13 00:33:39;;;;;;;6.07;5.47;;;;;;;16.05;100.00;96148.34;5010209;28;24432;-72
2022/05/13 00:36:06;;;;;;;5.90;5.32;;;;;;;16.00;100.00;96146.09;5010185;28;24420;-71
2022/05/13 00:38:33;;;;;;;5.30;4.80;;;;;;;16.05;100.00;96143.13;5010583;28;24420;-72
2022/05/13 00:41:00;;;;;;;6.47;5.78;;;;;;;16.07;100.00;96138.63;5010142;28;24428;-72
2022/05/13 00:43:42;;;;;;;7.70;5.35;;;;;;;16.12;100.00;96133.84;5009832;28;24875;-71
2022/05/13 00:46:09;;;;;;;7.30;5.50;;;;;;;16.04;100.00;96142.28;5010255;28;24423;-72
2022/05/13 00:48:35;;;;;;;7.13;5.72;;;;;;;16.06;100.00;96127.34;5010232;28;24428;-72
2022/05/13 00:51:05;;;;;;;8.00;5.78;;;;;;;16.08;100.00;96117.59;5009966;28;24476;-72
2022/05/13 00:53:32;;;;;;;8.30;5.45;;;;;;;16.12;100.00;96132.06;5009844;28;24786;-72
2022/05/13 00:56:00;;;;;;;8.80;5.35;;;;;;;16.03;100.00;96140.63;5009816;28;24474;-72
2022/05/13 00:58:29;;;;;;;9.68;5.47;;;;;;;15.96;100.00;96145.50;5013303;28;24424;-72
2022/05/13 01:00:55;;;;;;;8.57;5.97;;;;;;;16.04;100.00;96118.78;5013579;28;24435;-71
2022/05/13 01:03:22;;;;;;;12.05;6.85;;;;;;;16.08;100.00;96103.69;5013333;28;24822;-71
2022/05/13 01:05:53;;;;;;;9.30;6.20;;;;;;;16.08;100.00;96109.75;5013365;28;24443;-72
2022/05/13 01:08:21;;;;;;;10.18;5.53;;;;;;;16.07;100.00;96097.63;5013253;28;24492;-72
2022/05/13 01:10:49;;;;;;;6.20;5.60;;;;;;;16.05;100.00;96096.91;5013373;28;24455;-72
2022/05/13 01:13:22;;;;;;;6.85;5.60;;;;;;;15.91;100.00;96103.25;5013134;28;24432;-72
2022/05/13 01:15:51;;;;;;;8.55;6.40;;;;;;;15.65;100.00;96109.66;5013346;28;24826;-72
2022/05/13 01:18:26;;;;;;;8.68;6.38;;;;;;;15.40;100.00;96114.16;5013728;28;24879;-72
2022/05/13 01:20:53;;;;;;;10.60;6.10;;;;;;;15.09;100.00;96113.03;5012800;28;24846;-72
2022/05/13 01:23:23;;;;;;;10.03;6.87;;;;;;;14.96;100.00;96120.13;5013005;28;24431;-73
2022/05/13 01:25:52;;;;;;;7.72;6.97;;;;;;;14.98;100.00;96120.81;5013146;28;24826;-72
2022/05/13 01:28:22;;;;;;;9.00;6.47;;;;;;;15.06;100.00;96125.50;5013035;28;24419;-71
2022/05/13 01:30:51;;;;;;;6.43;5.45;;;;;;;14.89;100.00;96111.91;5012777;28;24483;-72
2022/05/13 01:33:18;;;;;;;9.13;5.37;;;;;;;15.04;100.00;96111.72;5012500;28;24949;-72
2022/05/13 01:35:47;;;;;;;7.88;5.30;;;;;;;15.07;100.00;96125.34;5012908;28;24423;-72
2022/05/13 01:38:15;;;;;;;6.47;5.00;;;;;;;15.17;100.00;96126.34;5013032;28;24427;-72
2022/05/13 01:40:43;;;;;;;6.88;5.60;;;;;;;15.25;100.00;96138.81;5013219;28;24427;-72
2022/05/13 01:43:10;;;;;;;6.45;5.82;;;;;;;15.31;100.00;96138.31;5012667;28;24427;-72
2022/05/13 01:45:37;;;;;;;7.35;6.28;;;;;;;15.30;100.00;96143.66;5012645;28;24424;-72
2022/05/13 01:48:06;;;;;;;7.20;6.22;;;;;;;15.18;100.00;96148.03;5012425;28;24976;-72
2022/05/13 01:50:33;;;;;;;8.13;6.10;;;;;;;15.26;100.00;96145.69;5012617;28;24467;-72
2022/05/13 01:53:00;;;;;;;5.32;4.57;;;;;;;15.33;100.00;96144.28;5012145;28;25032;-72
2022/05/13 01:55:26;;;;;;;4.43;4.03;;;;;;;15.39;100.00;96133.38;5012509;28;24421;-71
2022/05/13 01:57:54;;;;;;;4.75;4.10;;;;;;;15.34;100.00;96147.69;5012506;28;24474;-72
2022/05/13 02:00:22;;;;;;;5.63;4.20;;;;;;;15.28;100.00;96150.75;5012173;28;24474;-71
2022/05/13 02:05:32;;;;;;;5.72;4.65;;;;;;;15.20;100.00;96152.19;5012465;28;24416;-72
2022/05/13 02:07:59;;;;;;;6.80;4.38;;;;;;;15.06;100.00;96148.97;5011647;28;24451;-72
2022/05/13 02:10:26;;;;;;;5.30;4.32;;;;;;;14.99;100.00;96145.97;5011905;28;24428;-72
2022/05/13 02:12:54;;;;;;;5.97;4.43;;;;;;;15.17;100.00;96149.81;5011761;28;24440;-72
2022/05/13 02:15:21;;;;;;;5.97;4.45;;;;;;;15.26;100.00;96140.47;5011873;28;24426;-71
2022/05/13 02:17:47;;;;;;;5.57;4.60;;;;;;;15.34;100.00;96143.31;5012198;28;24416;-72
2022/05/13 02:20:14;;;;;;;5.40;4.88;;;;;;;15.36;100.00;96138.00;5026616;23;25168;-74
2022/05/13 02:22:41;;;;;;;9.57;4.60;;;;;;;15.48;100.00;96134.44;5012907;28;24448;-74
2022/05/13 02:25:08;;;;;;;5.22;4.72;;;;;;;15.53;100.00;96131.47;5012721;28;24447;-74
2022/05/13 02:27:35;;;;;;;5.40;4.90;;;;;;;15.59;100.00;96126.63;5012131;28;24420;-74
2022/05/13 02:30:03;;;;;;;7.40;4.68;;;;;;;15.67;100.00;96126.06;5012891;28;24460;-74
2022/05/13 02:32:30;;;;;;;5.80;4.40;;;;;;;15.55;100.00;96127.81;5012490;28;24440;-74
2022/05/13 02:34:56;;;;;;;9.05;4.15;;;;;;;15.51;100.00;96126.38;5012503;28;24428;-74
2022/05/13 02:37:22;;;;;;;5.10;4.20;;;;;;;15.65;100.00;96123.56;5012919;28;24478;-75
2022/05/13 02:39:49;;;;;;;6.43;4.47;;;;;;;15.54;100.00;96120.09;5012301;28;24428;-74
2022/05/13 02:42:15;;;;;;;7.43;4.40;;;;;;;15.47;100.00;96119.72;5012109;28;24782;-74
2022/05/13 02:44:42;;;;;;;5.53;3.97;;;;;;;15.52;100.00;96122.81;5012285;28;24435;-75
2022/05/13 02:47:10;;;;;;;5.20;4.40;;;;;;;15.36;100.00;96124.94;5012243;28;24439;-74
2022/05/13 02:49:37;;;;;;;6.88;4.63;;;;;;;15.41;100.00;96128.03;5012145;28;24440;-74
2022/05/13 02:52:04;;;;;;;4.93;4.20;;;;;;;15.40;100.00;96131.59;5012163;28;24432;-74
2022/05/13 02:54:30;;;;;;;8.30;4.43;;;;;;;15.38;100.00;96126.47;5011961;28;24420;-74
2022/05/13 02:56:56;;;;;;;4.80;4.03;;;;;;;15.31;100.00;96125.28;5012302;28;24429;-74
2022/05/13 02:59:23;;;;;;;5.55;3.90;;;;;;;15.16;100.00;96129.03;5011944;28;24829;-74
2022/05/13 03:01:50;;;;;;;5.13;3.78;;;;;;;15.00;100.00;96130.19;5011716;28;24818;-74
2022/05/13 03:04:18;;;;;;;4.82;4.05;;;;;;;14.92;100.00;96135.16;5011373;28;24443;-74
2022/05/13 03:06:44;;;;;;;4.70;3.47;;;;;;;14.85;100.00;96135.72;5011498;28;24953;-74
2022/05/13 03:09:11;;;;;;;4.30;3.90;;;;;;;14.90;100.00;96118.78;5011411;28;24443;-74
2022/05/13 03:11:38;;;;;;;4.93;3.53;;;;;;;14.96;100.00;96133.97;5012129;28;24540;-74
2022/05/13 03:14:04;;;;;;;5.68;4.07;;;;;;;14.95;100.00;96126.28;5011709;28;24439;-74
2022/05/13 03:16:31;;;;;;;5.95;4.00;;;;;;;14.97;100.00;96122.59;5011944;28;24424;-74
2022/05/13 03:18:59;;;;;;;8.25;4.18;;;;;;;14.87;100.00;96126.84;5011787;28;24436;-74
2022/05/13 03:21:27;;;;;;;4.97;3.75;;;;;;;14.72;100.00;96134.03;5011267;28;24516;-74
2022/05/13 03:23:54;;;;;;;4.72;3.42;;;;;;;14.62;100.00;96130.44;5011255;28;24417;-74
2022/05/13 03:26:22;;;;;;;5.50;3.50;;;;;;;14.55;100.00;96129.22;5011608;28;24482;-74
2022/05/13 03:28:49;;;;;;;9.88;3.45;;;;;;;14.52;100.00;96129.44;5011584;28;24478;-74
2022/05/13 03:31:16;;;;;;;7.40;3.58;;;;;;;14.54;100.00;96124.97;5011487;28;24463;-74
2022/05/13 03:33:42;;;;;;;7.68;3.25;;;;;;;14.42;100.00;96128.41;5011547;28;24413;-74
2022/05/13 03:36:10;;;;;;;6.78;3.25;;;;;;;14.46;100.00;96135.91;5011724;28;24432;-74
2022/05/13 03:38:40;;;;;;;7.80;3.07;;;;;;;14.58;100.00;96130.78;5011810;28;24869;-74
2022/05/13 03:41:07;;;;;;;6.15;3.17;;;;;;;14.56;100.00;96132.66;5011773;28;24451;-74
2022/05/13 03:43:33;;;;;;;9.43;2.90;;;;;;;14.56;100.00;96136.09;5011576;28;24420;-74
2022/05/13 03:45:59;;;;;;;5.70;3.17;;;;;;;14.50;100.00;96141.75;5011392;28;24482;-74
2022/05/13 03:48:26;;;;;;;6.80;3.30;;;;;;;14.48;100.00;96144.44;5011663;28;24523;-75
2022/05/13 03:50:52;;;;;;;7.40;3.30;;;;;;;14.51;100.00;96125.19;5011675;28;24435;-74
2022/05/13 03:53:19;;;;;;;6.80;2.87;;;;;;;14.66;100.00;96134.47;5011239;28;24443;-74
2022/05/13 03:55:47;;;;;;;9.00;3.40;;;;;;;14.52;100.00;96138.06;5011009;28;24435;-74
2022/05/13 03:58:13;;;;;;;4.28;2.58;;;;;;;14.64;100.00;96132.91;5011656;28;24424;-74
2022/05/13 04:00:41;;;;;;;5.47;2.93;;;;;;;14.79;100.00;96137.00;5011289;28;24482;-74
2022/05/13 04:03:09;;;;;;;4.10;2.83;;;;;;;14.86;100.00;96132.16;5011255;28;24424;-76
2022/05/13 04:11:05;;;;;;;3.65;2.60;;;;;;;14.96;100.00;96123.56;5011706;28;24436;-76
2022/05/13 04:16:15;;;;;;;5.63;3.28;;;;;;;15.04;100.00;96129.97;5011281;28;24416;-76
2022/05/13 04:18:44;;;;;;;7.60;4.57;;;;;;;14.85;100.00;96126.13;5011318;28;24427;-76
2022/05/13 04:21:13;;;;;;;9.83;6.07;;;;;;;14.69;100.00;96131.66;5011191;28;24431;-76
2022/05/13 04:23:42;;;;;;;6.63;4.87;;;;;;;14.56;100.00;96133.47;5010635;28;24417;-76
2022/05/13 04:26:12;;;;;;;7.33;5.27;;;;;;;14.53;100.00;96149.34;5010770;28;24483;-76
2022/05/13 04:28:38;;;;;;;6.70;6.05;;;;;;;14.52;100.00;96132.88;5011095;28;24421;-76
2022/05/13 04:31:05;;;;;;;8.30;5.53;;;;;;;14.65;100.00;96143.25;5011270;28;24432;-76
2022/05/13 04:33:31;;;;;;;5.00;4.53;;;;;;;14.74;100.00;96128.69;5014412;28;24821;-76
2022/05/13 04:35:58;;;;;;;7.95;5.15;;;;;;;14.76;100.00;96143.28;5014900;28;24451;-76
2022/05/13 04:38:24;;;;;;;8.97;6.07;;;;;;;14.61;100.00;96143.56;5014644;28;24501;-75
2022/05/13 04:40:51;;;;;;;9.80;5.97;;;;;;;14.68;100.00;96140.41;5014259;28;24436;-75
2022/05/13 04:43:17;;;;;;;6.18;5.20;;;;;;;14.73;100.00;96138.28;5014419;28;24436;-76
2022/05/13 04:45:44;;;;;;;9.93;6.25;;;;;;;14.68;100.00;96145.63;5014205;28;24436;-76
2022/05/13 04:48:18;;;;;;;6.95;5.68;;;;;;;14.43;100.00;96146.53;5014230;28;24423;-77
2022/05/13 04:50:50;;;;;;;6.88;5.40;;;;;;;14.42;100.00;96146.63;5013845;28;24494;-75
2022/05/13 04:53:19;;;;;;;9.18;5.38;;;;;;;14.49;100.00;96158.28;5013901;28;24470;-79
2022/05/13 04:55:46;;;;;;;5.95;5.03;;;;;;;14.62;100.00;96153.91;5012561;28;24435;-75
2022/05/13 04:58:13;;;;;;;5.50;5.00;;;;;;;14.75;100.00;96164.25;5013707;28;24490;-75
2022/05/13 05:00:40;;;;;;;13.45;6.47;;;;;;;14.66;100.00;96163.16;5013128;28;24436;-75
2022/05/13 05:03:07;;;;;;;8.82;6.60;;;;;;;14.63;100.00;96172.97;5013521;28;24482;-75
2022/05/13 05:05:34;;;;;;;6.57;5.47;;;;;;;14.68;100.00;96168.25;5013674;28;24416;-75
2022/05/13 05:08:01;;;;;;;5.00;3.60;;;;;;;14.79;100.00;96167.47;5029302;28;24497;-75
2022/05/13 05:10:27;;;;;;;5.10;3.50;;;;;;;14.82;100.00;96170.69;5033510;28;24952;-75
2022/05/13 05:12:54;;;;;;;5.90;4.00;;;;;;;14.68;100.00;96170.84;5033438;28;24992;-75
2022/05/13 05:15:21;;;;;;;6.68;3.75;;;;;;;14.59;100.00;96166.31;5033515;28;24746;-75
2022/05/13 05:17:49;;;;;;;3.55;3.20;;;;;;;14.70;100.00;96169.81;5033274;28;24427;-75
2022/05/13 05:20:16;;;;;;;7.05;3.75;;;;;;;14.73;100.00;96169.59;5033270;28;24486;-75
2022/05/13 05:22:44;;;;;;;5.00;3.72;;;;;;;14.74;100.00;96171.25;5032886;28;24427;-75
2022/05/13 05:25:12;;;;;;;5.60;4.28;;;;;;;14.54;100.00;96177.09;5033538;28;24419;-75
2022/05/13 05:27:38;;;;;;;8.75;3.95;;;;;;;14.50;100.00;96176.47;5034022;28;24541;-75
2022/05/13 05:30:07;;;;;;;6.73;4.47;;;;;;;14.44;100.00;96173.44;5033968;28;24420;-76
2022/05/13 05:32:37;;;;;;;5.88;3.83;;;;;;;14.40;100.00;96179.81;5019149;28;24445;-75
2022/05/13 05:35:06;;;;;;;11.43;3.80;;;;;;;14.40;100.00;96183.25;5016028;28;24397;-76
2022/05/13 05:37:33;;;;;;;7.45;3.63;;;;;;;14.54;100.00;96173.66;5014441;28;24447;-75
2022/05/13 05:39:59;;;;;;;5.55;3.20;;;;;;;14.63;100.00;96181.63;5013461;28;24984;-75
2022/05/13 05:42:26;;;;;;;6.53;3.22;;;;;;;14.65;100.00;96178.91;5003501;28;24460;-75
2022/05/13 05:44:52;;;;;;;7.68;3.05;;;;;;;14.81;100.00;96178.63;5001718;28;25004;-75
2022/05/13 05:47:21;;;;;;;4.43;3.17;;;;;;;14.95;100.00;96184.50;5013270;28;24431;-75
2022/05/13 05:49:48;;;;;;;4.85;3.85;;;;;;;15.01;100.00;96191.00;5012626;28;24510;-75
2022/05/13 05:52:16;;;;;;;4.00;3.58;;;;;;;15.09;100.00;96182.63;5013980;28;24444;-76
2022/05/13 05:57:26;;;;;;;5.95;3.80;;;;;;;15.11;100.00;96186.78;5032729;28;24423;-75
2022/05/13 05:59:53;;;;;;;5.40;3.58;;;;;;;14.98;100.00;96194.69;5032208;28;24431;-75
2022/05/13 06:02:20;;;;;;;4.53;2.55;;;;;;;14.97;100.00;96186.97;5031120;28;24482;-75
2022/05/13 06:04:46;;;;;;;4.85;2.78;;;;;;;14.99;100.00;96182.50;5031411;28;24423;-75
2022/05/13 06:07:16;;;;;;;11.55;2.90;;;;;;;15.01;100.00;96191.84;5031839;28;24979;-75
2022/05/13 06:09:44;;;;;;;7.30;3.10;;;;;;;14.97;100.00;96187.81;5033994;28;25042;-76
2022/05/13 06:12:12;;;;;;;6.17;2.80;;;;;;;15.00;100.00;96197.19;5031868;28;24464;-76
2022/05/13 06:14:40;;;;;;;5.32;2.92;;;;;;;15.02;100.00;96205.75;5030893;28;24439;-76
2022/05/13 06:17:07;;;;;;;6.17;2.80;;;;;;;15.06;100.00;96199.34;5032139;28;24579;-75
2022/05/13 06:19:33;;;;;;;5.35;2.65;;;;;;;15.16;100.00;96205.53;5031332;28;24969;-76
2022/05/13 06:22:00;;;;;;;10.23;3.05;;;;;;;15.24;100.00;96210.22;5032005;28;24422;-77
2022/05/13 06:24:28;;;;;;;7.10;2.65;;;;;;;15.22;100.00;96212.91;5032132;28;24427;-76
2022/05/13 06:26:54;;;;;;;6.07;2.53;;;;;;;15.22;100.00;96209.47;5032058;28;24482;-75
2022/05/13 06:29:23;;;;;;;7.63;2.47;;;;;;;15.17;100.00;96215.03;5032132;28;24438;-76
2022/05/13 06:31:49;;;;;;;7.87;3.40;;;;;;;15.04;100.00;96213.44;5030886;28;24424;-75
2022/05/13 06:34:17;;;;;;;10.07;3.00;;;;;;;15.02;100.00;96208.34;5031715;28;24531;-76
2022/05/13 06:36:44;;;;;;;6.68;2.63;;;;;;;15.10;100.00;96213.84;5031663;28;24825;-75
2022/05/13 06:39:10;;;;;;;9.77;2.75;;;;;;;15.09;100.00;96214.78;5031399;28;24945;-76
2022/05/13 06:41:40;;;;;;;6.65;2.83;;;;;;;15.17;100.00;96224.66;5032260;28;24419;-75
2022/05/13 06:44:07;;;;;;;5.78;2.45;;;;;;;15.38;100.00;96217.81;5031140;28;24423;-75
2022/05/13 06:46:35;;;;;;;6.28;2.38;;;;;;;15.42;100.00;96219.25;5031826;28;24485;-77
2022/05/13 06:49:04;;;;;;;8.90;2.60;;;;;;;15.44;100.00;96217.38;5032227;28;24424;-76
2022/05/13 06:51:31;;;;;;;6.28;2.17;;;;;;;15.26;100.00;96226.56;5031833;28;24534;-76
2022/05/13 06:54:03;;;;;;;4.35;2.30;;;;;;;15.40;100.00;96220.31;5031376;28;24447;-76
2022/05/13 06:56:30;;;;;;;5.65;2.50;;;;;;;15.19;100.00;96223.56;5031424;28;24879;-77
2022/05/13 06:58:58;;;;;;;7.55;2.90;;;;;;;15.28;100.00;96229.06;5034886;28;24439;-77
2022/05/13 07:01:24;;;;;;;4.68;2.25;;;;;;;15.42;100.00;96224.47;5041111;28;24432;-76
2022/05/13 07:03:51;;;;;;;5.53;2.43;;;;;;;15.40;100.00;96234.22;5045710;28;24423;-73
2022/05/13 07:06:17;;;;;;;4.97;2.37;;;;;;;15.66;100.00;96227.06;5051710;28;24493;-74
2022/05/13 07:08:43;;;;;;;6.05;2.63;;;;;;;15.69;100.00;96232.06;5051969;28;24416;-75
2022/05/13 07:11:10;;;;;;;9.13;2.53;;;;;;;15.69;100.00;96229.44;5052482;28;24423;-75
2022/05/13 07:13:36;;;;;;;5.45;2.78;;;;;;;15.54;100.00;96232.34;5051962;28;24466;-75
2022/05/13 07:16:05;;;;;;;8.13;2.47;;;;;;;15.63;100.00;96227.25;5051562;28;24984;-75
2022/05/13 07:18:31;;;;;;;10.25;2.90;;;;;;;15.67;100.00;96233.09;5052205;28;24449;-76
2022/05/13 07:20:58;;;;;;;10.82;2.50;;;;;;;15.85;100.00;96236.09;5051891;28;24442;-76
2022/05/13 07:23:24;;;;;;;8.65;2.38;;;;;;;15.94;100.00;96235.38;5051902;28;24427;-76
2022/05/13 07:25:51;;;;;;;12.02;2.47;;;;;;;16.13;100.00;96240.88;5052314;28;24458;-75
2022/05/13 07:28:17;;;;;;;9.88;2.85;;;;;;;16.19;100.00;96244.78;5052031;28;24415;-76
2022/05/13 07:30:45;;;;;;;6.90;2.60;;;;;;;16.27;100.00;96245.00;5051566;28;25053;-76
2022/05/13 07:33:13;;;;;;;8.25;2.40;;;;;;;16.11;100.00;96239.31;5051269;28;25075;-76
2022/05/13 07:35:40;;;;;;;7.00;2.72;;;;;;;15.98;100.00;96242.03;5051292;28;24419;-75
2022/05/13 07:38:07;;;;;;;7.85;2.42;;;;;;;15.86;100.00;96248.22;5050924;28;24418;-76
2022/05/13 07:43:26;;;;;;;8.82;2.90;;;;;;;15.77;100.00;96256.75;5026195;28;24431;-76
2022/05/13 07:45:52;;;;;;;6.47;2.33;;;;;;;15.68;100.00;96264.34;5051004;28;24427;-76
2022/05/13 07:48:20;;;;;;;9.13;2.53;;;;;;;15.87;100.00;96262.91;5051299;28;24454;-75
2022/05/13 07:50:46;;;;;;;5.75;2.53;;;;;;;15.99;100.00;96269.84;5051051;28;24497;-75
2022/05/13 07:53:13;;;;;;;10.20;2.53;;;;;;;15.78;100.00;96261.84;5050274;28;24446;-75
2022/05/13 07:55:39;;;;;;;11.50;2.85;;;;;;;15.99;100.00;96256.78;5050398;28;24430;-74
2022/05/13 07:58:06;;;;;;;11.13;2.88;;;;;;;15.94;100.00;96257.16;5051434;28;24427;-75
2022/05/13 08:00:33;;;;;;;11.68;2.42;;;;;;;15.84;100.00;96258.78;5051368;28;24434;-76
2022/05/13 08:03:01;;;;;;;6.57;2.60;;;;;;;15.83;100.00;96278.00;5051731;28;24415;-77
2022/05/13 08:05:33;;;;;;;8.18;2.45;;;;;;;15.87;100.00;96281.19;5051562;28;24419;-75
2022/05/13 08:08:03;;;;;;;9.48;2.63;;;;;;;15.86;100.00;96274.31;5055384;28;24416;-75
2022/05/13 08:10:30;;;;;;;10.63;2.75;;;;;;;15.96;100.00;96270.06;5054558;28;25093;-75
2022/05/13 08:12:57;;;;;;;5.57;2.03;;;;;;;16.58;100.00;96272.22;5054662;28;25003;-75
2022/05/13 08:15:23;;;;;;;7.00;2.20;;;;;;;16.92;100.00;96283.47;5055210;28;24464;-75
2022/05/13 08:17:50;;;;;;;9.45;2.50;;;;;;;16.96;100.00;96284.06;5054687;28;24423;-74
2022/05/13 08:20:16;;;;;;;10.52;2.90;;;;;;;16.39;100.00;96295.53;5051554;22;24487;-75
2022/05/13 08:22:45;;;;;;;9.30;2.73;;;;;;;15.85;100.00;96289.16;5015047;28;24849;-76
2022/05/13 08:25:11;;;;;;;7.80;2.42;;;;;;;15.76;100.00;96286.41;5015184;28;25029;-74
2022/05/13 08:27:38;;;;;;;6.65;2.58;;;;;;;15.80;100.00;96287.88;5014880;28;24417;-74
2022/05/13 08:30:05;;;;;;;7.28;2.72;;;;;;;15.65;100.00;96293.28;5014479;28;24965;-75
2022/05/13 08:32:32;;;;;;;9.57;2.65;;;;;;;15.58;100.00;96299.88;5014848;28;24972;-75
2022/05/13 08:34:58;;;;;;;11.60;2.95;;;;;;;15.42;100.00;96294.13;5014803;28;24451;-77
2022/05/13 08:37:25;;;;;;;10.15;2.72;;;;;;;15.55;100.00;96302.72;5015012;28;24852;-75
2022/05/13 08:39:52;;;;;;;10.52;2.83;;;;;;;15.35;100.00;96293.75;5014472;28;24825;-75
2022/05/13 08:42:25;;;;;;;6.38;2.55;;;;;;;15.34;100.00;96297.28;5014566;28;24980;-75
2022/05/13 08:44:54;;;;;;;6.35;2.80;;;;;;;15.40;100.00;96294.25;5014110;28;24794;-74
2022/05/13 08:47:23;;;;;;;7.93;2.65;;;;;;;15.72;100.00;96297.09;5014798;28;24408;-74
2022/05/13 08:49:55;;;;;;;10.60;2.92;;;;;;;16.20;100.00;96299.56;5014410;28;24435;-75
2022/05/13 08:55:29;;;;;;;11.63;3.20;;;;;;;16.26;99.73;96297.41;5014801;28;24956;-76
2022/05/13 08:57:58;;;;;;;11.32;2.80;;;;;;;16.14;100.00;96299.19;5014807;28;24435;-77
2022/05/13 09:00:31;;;;;;;9.40;2.78;;;;;;;16.02;100.00;96294.88;5014698;28;24778;-76
2022/05/13 09:03:04;;;;;;;8.93;3.00;;;;;;;15.96;100.00;96298.81;5014364;28;24420;-76
2022/05/13 09:05:36;;;;;;;8.15;2.42;;;;;;;15.98;91.64;96296.91;5014236;28;24424;-77
2022/05/13 09:08:04;;;;;;;8.30;2.58;;;;;;;16.05;97.23;96302.50;5014689;28;24413;-76
2022/05/13 09:10:37;;;;;;;8.37;2.53;;;;;;;15.96;94.99;96315.31;5014224;28;24965;-75
2022/05/13 09:13:13;;;;;;;12.20;2.85;;;;;;;15.81;95.10;96311.25;5014102;28;24817;-77
2022/05/13 09:15:44;;;;;;;6.60;2.40;;;;;;;15.86;97.44;96308.28;5014287;28;24427;-77
2022/05/13 09:18:18;;;;;;;11.05;2.50;;;;;;;15.97;98.33;96309.13;5013452;28;24822;-76
2022/05/13 09:20:50;;;;;;;7.35;2.25;;;;;;;16.36;95.93;96308.84;5014335;28;24431;-77
2022/05/13 09:23:17;;;;;;;8.10;2.42;;;;;;;15.94;90.52;96312.00;5014052;28;24420;-76
2022/05/13 09:26:03;;;;;;;6.10;2.25;;;;;;;15.75;94.16;96322.13;5014236;28;24427;-76
2022/05/13 09:28:31;;;;;;;16.42;2.63;;;;;;;15.75;91.99;96313.47;5013985;28;24515;-76
2022/05/13 09:31:07;;;;;;;9.77;2.50;;;;;;;15.78;91.92;96314.09;5013847;28;25020;-76
2022/05/13 09:33:35;;;;;;;7.85;2.20;;;;;;;15.83;91.68;96311.94;5013704;28;24977;-77
2022/05/13 09:36:04;;;;;;;8.38;2.35;;;;;;;15.80;91.19;96308.75;5013991;28;24416;-76
2022/05/13 09:38:34;;;;;;;6.55;2.50;;;;;;;15.75;91.37;96309.09;5014860;28;24432;-77
2022/05/13 09:41:04;;;;;;;6.73;2.57;;;;;;;15.90;92.37;96314.94;5013478;28;24444;-75
2022/05/13 09:43:37;;;;;;;10.65;2.67;;;;;;;16.06;94.24;96307.63;5013691;28;24431;-75
2022/05/13 09:46:06;;;;;;;9.70;2.40;;;;;;;16.23;88.29;96306.31;5013586;28;24409;-73
2022/05/13 09:48:36;;;;;;;9.85;2.47;;;;;;;16.12;88.18;96309.75;5013475;28;24551;-75
2022/05/13 09:51:22;;;;;;;7.70;2.22;;;;;;;16.25;89.08;96298.38;5013131;28;24500;-75
2022/05/13 09:54:01;;;;;;;5.22;2.35;;;;;;;16.06;90.57;96304.19;5013415;28;24451;-73
2022/05/13 09:56:40;;;;;;;9.63;2.63;;;;;;;15.93;89.34;96312.94;5013045;28;24464;-74
2022/05/13 09:59:17;;;;;;;6.13;2.58;;;;;;;16.07;91.90;96308.44;5013221;28;24436;-73
2022/05/13 10:01:44;;;;;;;7.93;2.83;;;;;;;16.16;90.61;96313.78;5013752;28;24460;-74
2022/05/13 10:04:12;;;;;;;9.23;3.00;;;;;;;16.07;90.05;96308.44;5013595;28;24429;-74
2022/05/13 10:06:41;;;;;;;9.00;2.92;;;;;;;15.98;91.73;96315.19;5013458;28;24424;-75
2022/05/13 10:14:45;;;;;;;5.22;2.35;;;;;;;16.24;92.28;96308.00;5013054;28;24510;-75
2022/05/13 10:17:16;;;;;;;8.40;3.00;;;;;;;16.68;94.66;96306.31;5013183;28;24471;-75
2022/05/13 10:19:49;;;;;;;5.82;2.78;;;;;;;16.58;92.82;96300.97;5013078;28;24492;-74
2022/05/13 10:22:23;;;;;;;21.77;2.92;;;;;;;16.89;92.90;96304.63;5013377;28;24424;-75
2022/05/13 10:24:54;;;;;;;5.15;2.45;;;;;;;16.95;91.36;96311.19;5013211;28;24431;-75
2022/05/13 10:27:30;;;;;;;9.93;3.27;;;;;;;16.96;91.10;96298.94;5013044;28;24968;-74
2022/05/13 10:30:03;;;;;;;14.43;3.10;;;;;;;16.91;93.18;96302.75;5012053;28;25085;-74
2022/05/13 10:32:41;;;;;;;6.90;2.70;;;;;;;17.01;92.96;96305.44;5012930;28;24416;-75
2022/05/13 10:35:11;;;;;;;6.72;2.63;;;;;;;17.03;92.42;96307.94;5012609;28;24440;-77
2022/05/13 10:37:52;;;;;;;4.37;2.27;;;;;;;16.99;90.90;96309.97;5012924;28;24954;-75
2022/05/13 10:40:21;;;;;;;4.03;2.50;;;;;;;16.97;92.62;96313.66;5014486;28;24427;-74
2022/05/13 10:42:57;;;;;;;6.60;2.67;;;;;;;17.07;88.58;96306.75;5015666;28;25027;-75
2022/05/13 10:45:25;;;;;;;6.63;2.78;;;;;;;17.51;86.40;96308.38;5011207;28;24440;-75
2022/05/13 10:47:57;;;;;;;7.10;2.97;;;;;;;17.17;88.97;96298.03;5012933;28;24782;-75
2022/05/13 10:50:37;;;;;;;6.47;2.70;;;;;;;17.30;89.95;96300.47;5109297;27;20732;-75
2022/05/13 10:53:10;;;;;;;7.47;2.80;;;;;;;17.12;92.81;96305.41;5109313;28;24471;-75
2022/05/13 10:56:10;;;;;;;10.23;2.95;;;;;;;16.91;88.54;96300.13;5109114;28;24433;-75
2022/05/13 10:58:42;;;;;;;8.68;2.65;;;;;;;16.89;90.95;96307.25;5109201;28;24421;-76
2022/05/13 11:01:24;;;;;;;8.80;2.80;;;;;;;17.29;93.74;96300.63;5109099;28;24418;-75
2022/05/13 11:03:59;;;;;;;9.33;2.80;;;;;;;17.41;90.20;96307.47;5109022;28;24426;-76
2022/05/13 11:06:40;;;;;;;7.00;2.90;;;;;;;17.70;85.63;96301.63;5108632;28;24450;-75
2022/05/13 11:09:15;;;;;;;6.53;2.80;;;;;;;18.10;82.19;96299.16;5108993;28;24963;-76
2022/05/13 11:11:44;;;;;;;5.65;3.05;;;;;;;17.99;82.80;96302.69;5108775;28;24962;-75
2022/05/13 11:14:36;;;;;;;13.45;3.10;;;;;;;18.31;83.59;96302.56;5109590;28;24513;-76
2022/05/13 11:17:11;;;;;;;4.50;2.63;;;;;;;18.52;79.44;96299.91;5109333;28;24422;-75
2022/05/13 11:19:45;;;;;;;7.33;2.73;;;;;;;18.52;81.16;96284.16;5108928;28;24957;-74
2022/05/13 11:22:23;;;;;;;6.82;3.05;;;;;;;18.40;82.66;96303.59;5108699;28;24959;-75
2022/05/13 11:27:57;;;;;;;6.15;2.88;;;;;;;18.55;81.70;96283.06;5108525;28;24458;-74
2022/05/13 11:30:35;;;;;;;6.15;2.50;;;;;;;18.29;81.66;96287.94;5108176;28;24449;-74
2022/05/13 11:33:18;;;;;;;7.75;2.50;;;;;;;18.26;81.37;96296.88;5108428;28;24413;-74
2022/05/13 11:35:54;;;;;;;7.80;3.10;;;;;;;18.58;82.52;96294.13;5108018;28;24521;-74
2022/05/13 11:38:31;;;;;;;6.78;2.75;;;;;;;18.63;83.38;96291.09;5108299;28;24422;-74
2022/05/13 11:41:04;;;;;;;7.80;2.50;;;;;;;18.88;78.20;96295.09;5108254;28;24422;-74
2022/05/13 11:43:41;;;;;;;5.40;2.40;;;;;;;19.03;74.68;96290.28;5108602;28;24506;-74
2022/05/13 11:46:33;;;;;;;9.60;2.90;;;;;;;18.96;77.59;96295.22;5107431;28;25205;-75
2022/05/13 11:49:09;;;;;;;7.10;2.30;;;;;;;19.09;75.25;96293.16;5115508;28;24505;-75
2022/05/13 11:51:37;;;;;;;6.53;2.40;;;;;;;19.46;72.83;96287.25;5128051;27;24476;-76
2022/05/13 11:54:18;;;;;;;4.28;2.47;;;;;;;19.30;73.16;96287.81;5128536;27;24779;-75
2022/05/13 11:56:46;;;;;;;4.15;2.33;;;;;;;19.01;71.36;96293.00;5128247;27;24421;-75
2022/05/13 11:59:45;;;;;;;4.10;2.38;;;;;;;19.12;71.23;96286.00;5128347;28;24989;-76
2022/05/13 12:02:28;;;;;;;5.65;2.03;;;;;;;19.44;69.34;96275.25;5114166;28;24421;-77
2022/05/13 12:05:08;;;;;;;5.82;2.17;;;;;;;19.64;68.87;96289.22;5115899;28;24421;-75